This is the latest recevied weather packets stored in our database for station/object OK1FET-15. If no packets are shown the sender has not sent any weather packets the latest 10 day(s).
| Time | Temp. | Humidity | Pressure | Rain* | Wind** | Luminosity | Snow |
|---|---|---|---|---|---|---|---|
| 1777704586 | 15° C | 55% | 1025.1 hPa | - | - | - | - |
| 1777704279 | 15° C | 57% | 1025 hPa | - | - | - | - |
| 1777703971 | 14.44° C | 59% | 1025 hPa | - | - | - | - |
| 1777703664 | 14.44° C | 64% | 1025 hPa | - | - | - | - |
| 1777703356 | 13.89° C | 68% | 1025 hPa | - | - | - | - |
| 1777703049 | 12.78° C | 71% | 1025.1 hPa | - | - | - | - |
| 1777702724 | 12.22° C | 73% | 1025.1 hPa | - | - | - | - |
| 1777702400 | 11.67° C | 76% | 1025 hPa | - | - | - | - |
| 1777702075 | 11.67° C | 77% | 1025 hPa | - | - | - | - |
| 1777701750 | 11.11° C | 79% | 1025.1 hPa | - | - | - | - |
| 1777701426 | 10.56° C | 80% | 1025.1 hPa | - | - | - | - |
| 1777659859 | 12.78° C | 39% | 1025.8 hPa | - | - | - | - |
| 1777659534 | 13.33° C | 38% | 1025.8 hPa | - | - | - | - |
| 1777659209 | 13.33° C | 37% | 1025.8 hPa | - | - | - | - |
| 1777658885 | 13.33° C | 37% | 1025.7 hPa | - | - | - | - |
| 1777658560 | 13.89° C | 37% | 1025.7 hPa | - | - | - | - |
| 1777658235 | 13.89° C | 37% | 1025.7 hPa | - | - | - | - |
| 1777657910 | 13.89° C | 36% | 1025.7 hPa | - | - | - | - |
| 1777657603 | 14.44° C | 36% | 1025.7 hPa | - | - | - | - |
| 1777657295 | 14.44° C | 36% | 1025.7 hPa | - | - | - | - |
| 1777656988 | 14.44° C | 36% | 1025.7 hPa | - | - | - | - |
| 1777656681 | 15° C | 35% | 1025.6 hPa | - | - | - | - |
| 1777656373 | 15° C | 33% | 1025.6 hPa | - | - | - | - |
| 1777656066 | 15° C | 34% | 1025.6 hPa | - | - | - | - |
| 1777655759 | 15° C | 34% | 1025.5 hPa | - | - | - | - |
* Rain since midnight (hover to see other rain measurements)
** Current wind speed in m/s (hover to see current wind gust speed)